createdAt,value
2019-02-08T00:01:32.191Z,100973.45
2019-02-08T00:04:07.339Z,100974.71
2019-02-08T00:06:42.192Z,100980.51
2019-02-08T00:09:16.930Z,100971.28
2019-02-08T00:11:52.209Z,100973.98
2019-02-08T00:14:28.104Z,100979.84
2019-02-08T00:17:02.962Z,100971.38
2019-02-08T00:19:37.777Z,100977.75
2019-02-08T00:22:12.685Z,100980.46
2019-02-08T00:24:47.510Z,100983.34
2019-02-08T00:27:23.205Z,100986.32
2019-02-08T00:29:57.976Z,100986.53
2019-02-08T00:32:32.981Z,100986.68
2019-02-08T00:35:08.011Z,100988.41
2019-02-08T00:37:42.865Z,100992.12
2019-02-08T00:40:18.369Z,100998.73
2019-02-08T00:42:53.376Z,100999.67
2019-02-08T00:45:28.180Z,100997.13
2019-02-08T00:48:03.019Z,101008.97
2019-02-08T00:50:37.841Z,101003.80
2019-02-08T00:53:15.579Z,100999.37
2019-02-08T00:55:51.402Z,101002.08
2019-02-08T00:58:26.254Z,101006.11
2019-02-08T01:01:01.061Z,101005.38
2019-02-08T01:03:36.339Z,101006.41
2019-02-08T01:06:11.401Z,101001.50
2019-02-08T01:08:46.217Z,101003.02
2019-02-08T01:11:20.980Z,101013.94
2019-02-08T01:13:57.451Z,101004.38
2019-02-08T01:16:32.617Z,101003.59
2019-02-08T01:19:07.531Z,101006.84
2019-02-08T01:21:42.340Z,101018.01
2019-02-08T01:24:17.166Z,101008.09
2019-02-08T01:26:51.969Z,101021.72
2019-02-08T01:29:26.857Z,101017.16
2019-02-08T01:32:01.683Z,101014.55
2019-02-08T01:34:36.921Z,101025.48
2019-02-08T01:37:11.722Z,101023.90
2019-02-08T01:39:46.616Z,101022.44
2019-02-08T01:42:21.493Z,101021.40
2019-02-08T01:44:56.331Z,101023.58
2019-02-08T01:47:31.199Z,101022.84
2019-02-08T01:50:08.599Z,101021.39
2019-02-08T01:52:43.423Z,101017.10
2019-02-08T01:55:19.281Z,101022.69
2019-02-08T01:57:54.355Z,101021.32
2019-02-08T02:00:42.473Z,101025.23
2019-02-08T02:03:17.319Z,101023.72
2019-02-08T02:05:52.248Z,101026.45
2019-02-08T02:08:26.968Z,101030.98
2019-02-08T02:11:01.989Z,101032.86
2019-02-08T02:13:36.809Z,101022.53
2019-02-08T02:16:11.676Z,101036.03
2019-02-08T02:18:46.383Z,101042.97
2019-02-08T02:21:21.242Z,101045.64
2019-02-08T02:23:56.432Z,101043.55
2019-02-08T02:26:31.232Z,101040.94
2019-02-08T02:29:06.056Z,101049.88
2019-02-08T02:31:41.390Z,101049.51
2019-02-08T02:34:16.098Z,101050.51
2019-02-08T02:36:51.082Z,101047.27
2019-02-08T02:39:25.905Z,101047.58
2019-02-08T02:42:00.692Z,101036.69
2019-02-08T02:44:36.483Z,101035.37
2019-02-08T02:47:11.297Z,101037.98
2019-02-08T02:49:46.191Z,101048.25
2019-02-08T02:52:21.492Z,101049.81
2019-02-08T02:54:57.345Z,101051.75
2019-02-08T02:57:32.381Z,101055.22
2019-02-08T03:00:16.801Z,101051.89
2019-02-08T03:02:51.735Z,101053.77
2019-02-08T03:05:26.704Z,101043.75
2019-02-08T03:08:01.679Z,101052.61
2019-02-08T03:10:36.735Z,101051.38
2019-02-08T03:13:13.093Z,101050.80
2019-02-08T03:15:47.796Z,101052.98
2019-02-08T03:18:22.603Z,101052.09
2019-02-08T03:20:57.398Z,101047.60
2019-02-08T03:23:32.234Z,101054.61
2019-02-08T03:26:07.142Z,101047.67
2019-02-08T03:28:42.004Z,101051.38
2019-02-08T03:31:16.832Z,101048.91
2019-02-08T03:33:51.686Z,101046.87
2019-02-08T03:36:26.552Z,101047.44
2019-02-08T03:39:01.372Z,101047.48
2019-02-08T03:41:36.407Z,101045.08
2019-02-08T03:44:11.262Z,101046.66
2019-02-08T03:46:45.959Z,101042.73
2019-02-08T03:49:20.798Z,101037.77
2019-02-08T03:51:55.520Z,101041.09
2019-02-08T03:54:30.274Z,101028.78
2019-02-08T03:57:05.011Z,101030.67
2019-02-08T03:59:39.833Z,101032.86
2019-02-08T04:02:15.650Z,101041.84
2019-02-08T04:04:50.600Z,101039.75
2019-02-08T04:07:25.664Z,101037.14
2019-02-08T04:10:00.493Z,101032.72
2019-02-08T04:12:35.375Z,101031.04
2019-02-08T04:15:16.467Z,101044.36
2019-02-08T04:17:53.903Z,101035.12
2019-02-08T04:20:31.204Z,101039.14
2019-02-08T04:23:08.477Z,101042.73
2019-02-08T04:25:45.765Z,101039.09
2019-02-08T04:28:23.042Z,101039.28
2019-02-08T04:31:00.318Z,101035.52
2019-02-08T04:33:36.046Z,101039.28
2019-02-08T04:36:10.886Z,101029.53
2019-02-08T04:38:46.774Z,101044.25
2019-02-08T04:41:21.682Z,101034.56
2019-02-08T04:43:56.490Z,101038.47
2019-02-08T04:46:31.327Z,101038.54
2019-02-08T04:49:06.182Z,101036.86
2019-02-08T04:51:40.911Z,101030.44
2019-02-08T04:54:15.741Z,101037.17
2019-02-08T04:56:50.499Z,101038.16
2019-02-08T04:59:25.286Z,101035.55
2019-02-08T05:02:00.076Z,101033.81
2019-02-08T05:04:34.918Z,101033.09
2019-02-08T05:07:09.624Z,101044.25
2019-02-08T05:09:44.358Z,101035.53
2019-02-08T05:12:19.186Z,101027.71
2019-02-08T05:14:53.978Z,101024.63
2019-02-08T05:17:28.857Z,101017.60
2019-02-08T05:20:03.679Z,101029.17
2019-02-08T05:22:38.533Z,101019.39
2019-02-08T05:25:13.739Z,101027.56
2019-02-08T05:27:48.682Z,101015.83
2019-02-08T05:30:32.884Z,101024.98
2019-02-08T05:33:08.116Z,101026.77
2019-02-08T05:35:42.970Z,101024.51
2019-02-08T05:38:17.788Z,101022.31
2019-02-08T05:40:52.578Z,101022.55
2019-02-08T05:43:27.605Z,101022.08
2019-02-08T05:46:02.564Z,101015.25
2019-02-08T05:48:37.304Z,101013.98
2019-02-08T05:51:12.108Z,101009.69
2019-02-08T05:53:47.037Z,101011.68
2019-02-08T05:56:21.857Z,101006.05
2019-02-08T05:58:56.684Z,101002.18
2019-02-08T06:01:31.786Z,100993.64
2019-02-08T06:04:08.283Z,100991.82
2019-02-08T06:06:43.145Z,100980.61
2019-02-08T06:09:17.915Z,100993.02
2019-02-08T06:11:52.798Z,100986.30
2019-02-08T06:14:27.565Z,100981.56
2019-02-08T06:17:04.828Z,100987.60
2019-02-08T06:19:40.539Z,100978.34
2019-02-08T06:22:16.260Z,100988.25
2019-02-08T06:24:51.232Z,100988.25
2019-02-08T06:27:26.114Z,100987.84
2019-02-08T06:30:00.958Z,100988.80
2019-02-08T06:32:35.914Z,100987.86
2019-02-08T06:35:10.956Z,100984.77
2019-02-08T06:37:45.828Z,100988.98
2019-02-08T06:40:23.292Z,100994.71
2019-02-08T06:43:00.924Z,100996.59
2019-02-08T06:45:35.777Z,100995.81
2019-02-08T06:48:12.329Z,100994.05
2019-02-08T06:50:47.262Z,100998.48
2019-02-08T06:53:22.162Z,100998.69
2019-02-08T06:55:56.977Z,100997.97
2019-02-08T06:58:36.348Z,101006.31
2019-02-08T07:01:33.064Z,100998.71
2019-02-08T07:04:18.598Z,101000.47
2019-02-08T07:07:13.066Z,101001.46
2019-02-08T07:10:18.746Z,101003.93
2019-02-08T07:13:30.660Z,101010.81
2019-02-08T07:16:24.376Z,101000.69
2019-02-08T07:19:27.336Z,101004.95
2019-02-08T07:22:13.414Z,101004.21
2019-02-08T07:25:09.923Z,101003.33
2019-02-08T07:28:04.888Z,101010.56
2019-02-08T07:30:59.774Z,101009.33
2019-02-08T07:33:53.716Z,101003.70
2019-02-08T07:36:50.642Z,101004.21
2019-02-08T07:39:35.092Z,101010.73
2019-02-08T07:42:31.822Z,100999.20
2019-02-08T07:45:16.128Z,101007.23
2019-02-08T07:48:19.886Z,101012.62
2019-02-08T07:51:13.715Z,101009.38
2019-02-08T07:54:13.698Z,101016.67
2019-02-08T07:57:23.192Z,101014.86
2019-02-08T08:00:16.468Z,101014.75
2019-02-08T08:03:08.826Z,101013.55
2019-02-08T08:06:09.970Z,101007.82
2019-02-08T08:09:06.780Z,101004.95
2019-02-08T08:12:10.714Z,101005.17
2019-02-08T08:14:55.245Z,100996.41
2019-02-08T08:17:47.789Z,100997.36
2019-02-08T08:21:01.824Z,100990.58
2019-02-08T08:23:59.346Z,100998.41
2019-02-08T08:26:54.872Z,100999.41
2019-02-08T08:29:47.665Z,100997.26
2019-02-08T08:32:31.815Z,100984.06
2019-02-08T08:36:07.739Z,100999.57
2019-02-08T08:39:38.926Z,100985.95
2019-02-08T08:43:15.976Z,100983.92
2019-02-08T08:46:52.493Z,100980.61
2019-02-08T08:50:09.236Z,100983.28
2019-02-08T08:53:35.161Z,100983.94
2019-02-08T08:57:11.288Z,100976.91
2019-02-08T09:00:34.975Z,100982.64
2019-02-08T09:03:48.162Z,100979.14
2019-02-08T09:07:04.957Z,100968.20
2019-02-08T09:10:44.072Z,100961.58
2019-02-08T09:14:38.590Z,100949.92
2019-02-08T09:18:34.677Z,100954.96
2019-02-08T09:21:44.979Z,100952.34
2019-02-08T09:25:14.015Z,100956.27
2019-02-08T09:28:48.062Z,100952.23
2019-02-08T09:32:27.530Z,100954.49
2019-02-08T09:36:01.176Z,100956.38
2019-02-08T09:39:17.405Z,100942.25
2019-02-08T09:42:51.753Z,100939.63
2019-02-08T09:46:35.115Z,100930.58
2019-02-08T09:49:56.328Z,100941.36
2019-02-08T09:53:42.065Z,100926.57
2019-02-08T09:57:08.153Z,100936.50
2019-02-08T10:00:43.094Z,100932.20
2019-02-08T10:04:47.781Z,100923.69
2019-02-08T10:08:10.930Z,100930.52
2019-02-08T10:11:27.292Z,100934.50
2019-02-08T10:14:55.521Z,100931.80
2019-02-08T10:18:27.073Z,100937.20
2019-02-08T10:22:10.430Z,100921.58
2019-02-08T10:25:43.549Z,100922.75
2019-02-08T10:29:40.417Z,100912.92
2019-02-08T10:33:15.717Z,100917.14
2019-02-08T10:37:11.553Z,100925.91
2019-02-08T10:41:03.949Z,100910.73
2019-02-08T10:44:33.277Z,100907.87
2019-02-08T10:48:06.586Z,100905.75
2019-02-08T10:51:36.117Z,100894.64
2019-02-08T10:54:57.592Z,100887.19
2019-02-08T10:58:38.491Z,100897.95
2019-02-08T11:02:12.441Z,100897.29
2019-02-08T11:06:02.955Z,100894.95
2019-02-08T11:09:39.544Z,100889.41
2019-02-08T11:13:28.219Z,100887.85
2019-02-08T11:17:09.937Z,100874.63
2019-02-08T11:19:43.201Z,100858.18
2019-02-08T11:22:18.385Z,100868.48
2019-02-08T11:24:53.452Z,100869.43
2019-02-08T11:27:28.844Z,100864.84
2019-02-08T11:30:04.102Z,100870.13
2019-02-08T11:32:43.274Z,100851.63
2019-02-08T11:35:16.821Z,100861.94
2019-02-08T11:37:52.848Z,100856.86
2019-02-08T11:40:29.826Z,100859.81
2019-02-08T11:43:04.938Z,100847.89
2019-02-08T11:45:39.961Z,100844.42
2019-02-08T11:48:14.881Z,100836.17
2019-02-08T11:50:49.911Z,100846.59
2019-02-08T11:53:24.841Z,100842.03
2019-02-08T11:55:59.764Z,100831.00
2019-02-08T11:58:34.824Z,100841.98
2019-02-08T12:01:09.838Z,100834.66
2019-02-08T12:03:44.697Z,100839.25
2019-02-08T12:06:19.507Z,100823.55
2019-02-08T12:08:54.412Z,100827.17
2019-02-08T12:11:29.266Z,100818.91
2019-02-08T12:14:04.289Z,100814.43
2019-02-08T12:16:39.254Z,100807.14
2019-02-08T12:19:14.149Z,100811.52
2019-02-08T12:21:51.154Z,100806.27
2019-02-08T12:24:26.063Z,100786.94
2019-02-08T12:27:01.779Z,100791.27
2019-02-08T12:29:36.728Z,100784.00
2019-02-08T12:32:11.593Z,100771.60
2019-02-08T12:34:46.379Z,100761.92
2019-02-08T12:37:21.269Z,100770.53
2019-02-08T12:39:56.741Z,100755.45
2019-02-08T12:42:34.081Z,100764.54
2019-02-08T12:45:12.299Z,100739.18
2019-02-08T12:47:49.711Z,100764.09
2019-02-08T12:50:27.123Z,100757.50
2019-02-08T12:53:03.005Z,100749.00
2019-02-08T12:55:38.171Z,100743.43
2019-02-08T12:58:14.175Z,100751.78
2019-02-08T13:00:49.344Z,100740.33
2019-02-08T13:03:24.385Z,100731.45
2019-02-08T13:05:59.373Z,100728.05
2019-02-08T13:08:34.403Z,100729.63
2019-02-08T13:11:09.474Z,100733.13
2019-02-08T13:13:46.555Z,100713.69
2019-02-08T13:16:21.648Z,100713.92
2019-02-08T13:18:56.655Z,100711.92
2019-02-08T13:21:31.630Z,100698.61
2019-02-08T13:24:06.961Z,100708.69
2019-02-08T13:26:42.044Z,100712.19
2019-02-08T13:29:18.664Z,100689.70
2019-02-08T13:31:53.533Z,100690.64
2019-02-08T13:34:28.524Z,100687.30
2019-02-08T13:37:03.415Z,100679.78
2019-02-08T13:39:39.359Z,100680.72
2019-02-08T13:42:14.239Z,100676.84
2019-02-08T13:44:48.960Z,100668.56
2019-02-08T13:47:23.837Z,100663.32
2019-02-08T13:49:58.685Z,100648.75
2019-02-08T13:52:35.561Z,100653.41
2019-02-08T13:55:14.229Z,100658.34
2019-02-08T13:57:49.153Z,100641.16
2019-02-08T14:00:28.525Z,100640.16
2019-02-08T14:03:03.457Z,100643.86
2019-02-08T14:05:38.305Z,100643.16
2019-02-08T14:08:13.204Z,100646.56
2019-02-08T14:10:48.017Z,100636.12
2019-02-08T14:13:22.909Z,100647.34
2019-02-08T14:15:57.653Z,100633.94
2019-02-08T14:18:32.617Z,100632.63
2019-02-08T14:21:07.466Z,100628.13
2019-02-08T14:23:42.347Z,100623.96
2019-02-08T14:26:17.201Z,100621.81
2019-02-08T14:28:52.053Z,100606.94
2019-02-08T14:31:26.755Z,100614.30
2019-02-08T14:34:01.612Z,100617.29
2019-02-08T14:36:36.404Z,100608.80
2019-02-08T14:39:12.405Z,100606.19
2019-02-08T14:41:47.214Z,100604.20
2019-02-08T14:44:22.053Z,100596.11
2019-02-08T14:46:56.925Z,100601.81
2019-02-08T14:49:32.839Z,100600.03
2019-02-08T14:52:07.737Z,100590.87
2019-02-08T14:54:42.591Z,100590.37
2019-02-08T14:57:17.398Z,100593.98
2019-02-08T14:59:52.350Z,100585.31
2019-02-08T15:02:27.092Z,100580.10
2019-02-08T15:05:02.131Z,100586.36
2019-02-08T15:07:36.886Z,100576.33
2019-02-08T15:10:19.243Z,100570.16
2019-02-08T15:12:54.229Z,100568.98
2019-02-08T15:15:29.165Z,100565.77
2019-02-08T15:18:04.337Z,100559.98
2019-02-08T15:20:39.527Z,100553.95
2019-02-08T15:23:14.361Z,100541.41
2019-02-08T15:25:49.375Z,100534.12
2019-02-08T15:28:24.237Z,100524.77
2019-02-08T15:30:59.013Z,100520.01
2019-02-08T15:33:33.899Z,100530.33
2019-02-08T15:36:08.779Z,100518.40
2019-02-08T15:38:43.588Z,100516.03
2019-02-08T15:41:18.463Z,100516.54
2019-02-08T15:43:53.345Z,100512.16
2019-02-08T15:46:28.201Z,100510.38
2019-02-08T15:49:03.089Z,100502.53
2019-02-08T15:51:37.946Z,100504.68
2019-02-08T15:54:12.871Z,100509.87
2019-02-08T15:56:47.717Z,100500.98
2019-02-08T15:59:25.628Z,100498.67
2019-02-08T16:02:00.484Z,100491.65
2019-02-08T16:04:35.337Z,100493.15
2019-02-08T16:07:11.607Z,100492.98
2019-02-08T16:09:46.455Z,100467.02
2019-02-08T16:12:21.454Z,100471.72
2019-02-08T16:14:56.276Z,100462.61
2019-02-08T16:17:31.178Z,100466.00
2019-02-08T16:20:06.667Z,100457.83
2019-02-08T16:22:41.617Z,100461.45
2019-02-08T16:25:16.886Z,100459.16
2019-02-08T16:27:52.618Z,100453.09
2019-02-08T16:30:29.893Z,100459.20
2019-02-08T16:33:05.219Z,100463.38
2019-02-08T16:35:41.131Z,100446.67
2019-02-08T16:38:15.877Z,100440.41
2019-02-08T16:40:50.761Z,100442.72
2019-02-08T16:43:25.668Z,100433.25
2019-02-08T16:46:00.471Z,100437.98
2019-02-08T16:48:35.287Z,100430.10
2019-02-08T16:51:10.346Z,100426.23
2019-02-08T16:53:53.095Z,100423.07
2019-02-08T16:56:21.839Z,100432.02
2019-02-08T16:58:56.671Z,100413.44
2019-02-08T17:01:31.747Z,100418.19
2019-02-08T17:04:06.936Z,100409.31
2019-02-08T17:06:41.752Z,100412.42
2019-02-08T17:09:17.851Z,100404.81
2019-02-08T17:11:52.799Z,100396.47
2019-02-08T17:14:27.662Z,100399.32
2019-02-08T17:17:02.503Z,100394.08
2019-02-08T17:19:37.303Z,100384.67
2019-02-08T17:22:13.634Z,100378.19
2019-02-08T17:24:48.546Z,100385.27
2019-02-08T17:27:24.931Z,100371.05
2019-02-08T17:29:59.871Z,100366.09
2019-02-08T17:32:34.893Z,100358.83
2019-02-08T17:35:12.725Z,100356.20
2019-02-08T17:37:47.595Z,100356.68
2019-02-08T17:40:25.886Z,100344.02
2019-02-08T17:43:00.818Z,100349.78
2019-02-08T17:45:35.780Z,100330.44
2019-02-08T17:48:13.945Z,100337.22
2019-02-08T17:50:48.888Z,100336.45
2019-02-08T17:53:24.668Z,100328.92
2019-02-08T17:55:59.576Z,100330.19
2019-02-08T17:58:34.612Z,100329.59
2019-02-08T18:01:09.452Z,100324.87
2019-02-08T18:03:45.769Z,100324.84
2019-02-08T18:06:21.037Z,100317.56
2019-02-08T18:08:56.069Z,100327.27
2019-02-08T18:11:31.036Z,100309.74
2019-02-08T18:14:06.246Z,100308.97
2019-02-08T18:16:41.478Z,100306.84
2019-02-08T18:19:16.452Z,100310.77
2019-02-08T18:21:51.558Z,100310.77
2019-02-08T18:24:26.514Z,100304.22
2019-02-08T18:27:01.502Z,100299.51
2019-02-08T18:29:38.693Z,100292.38
2019-02-08T18:32:14.636Z,100283.78
2019-02-08T18:34:49.562Z,100281.94
2019-02-08T18:37:24.533Z,100277.72
2019-02-08T18:39:59.528Z,100274.28
2019-02-08T18:42:34.430Z,100276.37
2019-02-08T18:45:13.727Z,100268.80
2019-02-08T18:47:48.750Z,100257.25
2019-02-08T18:50:33.052Z,100259.38
2019-02-08T18:53:08.095Z,100253.12
2019-02-08T18:55:43.363Z,100253.36
2019-02-08T18:58:19.452Z,100251.28
2019-02-08T19:00:54.724Z,100237.65
2019-02-08T19:03:30.953Z,100226.67
2019-02-08T19:06:06.088Z,100225.04
2019-02-08T19:08:41.869Z,100225.61
2019-02-08T19:11:16.789Z,100217.22
2019-02-08T19:13:51.929Z,100211.98
2019-02-08T19:16:27.044Z,100202.27
2019-02-08T19:19:03.192Z,100211.94
2019-02-08T19:21:38.325Z,100189.41
2019-02-08T19:24:13.443Z,100193.88
2019-02-08T19:26:48.477Z,100188.64
2019-02-08T19:29:23.578Z,100184.70
2019-02-08T19:31:59.598Z,100185.98
2019-02-08T19:34:35.555Z,100179.71
2019-02-08T19:37:10.611Z,100167.67
2019-02-08T19:39:45.540Z,100168.20
2019-02-08T19:42:20.455Z,100151.67
2019-02-08T19:44:55.463Z,100151.43
2019-02-08T19:47:30.433Z,100144.06
2019-02-08T19:50:06.882Z,100142.75
2019-02-08T19:52:41.977Z,100137.80
2019-02-08T19:55:16.936Z,100134.39
2019-02-08T19:57:53.131Z,100149.09
2019-02-08T20:00:30.977Z,100146.22
2019-02-08T20:03:07.086Z,100123.88
2019-02-08T20:05:42.258Z,100128.13
2019-02-08T20:08:17.472Z,100127.07
2019-02-08T20:10:52.712Z,100120.80
2019-02-08T20:13:28.004Z,100115.52
2019-02-08T20:16:02.988Z,100115.52
2019-02-08T20:18:38.515Z,100104.80
2019-02-08T20:21:14.342Z,100089.33
2019-02-08T20:23:49.348Z,100104.52
2019-02-08T20:26:24.300Z,100100.30
2019-02-08T20:28:59.381Z,100105.08
2019-02-08T20:31:34.414Z,100099.84
2019-02-08T20:34:09.546Z,100099.06
2019-02-08T20:36:44.513Z,100090.89
2019-02-08T20:39:20.315Z,100090.39
2019-02-08T20:41:55.350Z,100083.80
2019-02-08T20:44:30.442Z,100093.78
2019-02-08T20:47:05.618Z,100074.39
2019-02-08T20:49:40.785Z,100073.33
2019-02-08T20:52:15.954Z,100071.52
2019-02-08T20:54:52.315Z,100070.98
2019-02-08T20:57:27.483Z,100057.64
2019-02-08T21:00:02.791Z,100043.73
2019-02-08T21:02:39.914Z,100042.45
2019-02-08T21:05:15.476Z,100051.61
2019-02-08T21:07:51.470Z,100045.59
2019-02-08T21:10:26.632Z,100042.73
2019-02-08T21:13:01.760Z,100046.91
2019-02-08T21:15:37.097Z,100040.58
2019-02-08T21:18:13.169Z,100031.69
2019-02-08T21:20:49.679Z,100031.69
2019-02-08T21:23:24.899Z,100027.00
2019-02-08T21:26:00.874Z,100032.47
2019-02-08T21:28:36.005Z,100027.25
2019-02-08T21:31:12.154Z,100031.21
2019-02-08T21:33:48.614Z,100015.48
2019-02-08T21:36:24.102Z,100017.58
2019-02-08T21:38:59.627Z,100006.06
2019-02-08T21:41:35.141Z,100005.26
2019-02-08T21:44:10.154Z,100008.12
2019-02-08T21:46:45.262Z,100014.94
2019-02-08T21:49:20.354Z,100000.78
2019-02-08T21:51:55.582Z,99984.00
2019-02-08T21:54:32.041Z,99994.00
2019-02-08T21:57:09.178Z,99988.48
2019-02-08T21:59:44.513Z,99974.06
2019-02-08T22:02:20.001Z,99979.59
2019-02-08T22:04:55.022Z,99990.84
2019-02-08T22:07:30.004Z,99983.54
2019-02-08T22:10:05.812Z,99971.45
2019-02-08T22:12:43.038Z,99971.98
2019-02-08T22:15:22.643Z,99967.01
2019-02-08T22:17:59.184Z,99959.84
2019-02-08T22:20:35.664Z,99961.02
2019-02-08T22:23:10.850Z,99959.37
2019-02-08T22:25:46.126Z,99939.11
2019-02-08T22:28:21.146Z,99940.13
2019-02-08T22:30:58.147Z,99932.45
2019-02-08T22:33:34.539Z,99922.52
2019-02-08T22:36:09.826Z,99921.42
2019-02-08T22:38:44.883Z,99924.03
2019-02-08T22:41:20.012Z,99920.07
2019-02-08T22:43:55.941Z,99928.94
2019-02-08T22:46:31.245Z,99925.80
2019-02-08T22:49:06.259Z,99915.33
2019-02-08T22:51:42.219Z,99921.59
2019-02-08T22:54:17.332Z,99907.20
2019-02-08T22:56:52.501Z,99906.14
2019-02-08T22:59:28.332Z,99906.92
2019-02-08T23:02:04.863Z,99898.55
2019-02-08T23:04:39.803Z,99898.02
2019-02-08T23:07:15.067Z,99891.19
2019-02-08T23:09:49.999Z,99888.85
2019-02-08T23:12:25.156Z,99891.23
2019-02-08T23:15:00.459Z,99881.55
2019-02-08T23:17:35.622Z,99888.86
2019-02-08T23:20:11.783Z,99876.03
2019-02-08T23:22:47.547Z,99873.13
2019-02-08T23:25:22.665Z,99877.87
2019-02-08T23:27:57.963Z,99875.78
2019-02-08T23:30:33.015Z,99877.63
2019-02-08T23:33:09.839Z,99870.84
2019-02-08T23:35:44.874Z,99867.16
2019-02-08T23:38:20.589Z,99867.45
2019-02-08T23:40:56.170Z,99870.55
2019-02-08T23:43:31.010Z,99857.52
2019-02-08T23:46:06.120Z,99870.38
2019-02-08T23:48:41.068Z,99853.63
2019-02-08T23:51:15.953Z,99867.77
2019-02-08T23:53:51.013Z,99851.58
2019-02-08T23:56:25.951Z,99848.44
2019-02-08T23:59:00.810Z,99841.90
